sensor_id;sensor_type;location;lat;lon;timestamp;P1;durP1;ratioP1;P2;durP2;ratioP2
35150;SDS011;55720;51.972;4.624;2023-02-15T00:01:49;78.63;;;34.05;;
35150;SDS011;55720;51.972;4.624;2023-02-15T00:04:17;75.80;;;33.55;;
35150;SDS011;55720;51.972;4.624;2023-02-15T00:06:45;72.05;;;30.98;;
35150;SDS011;55720;51.972;4.624;2023-02-15T00:09:11;72.60;;;32.45;;
35150;SDS011;55720;51.972;4.624;2023-02-15T00:11:37;75.72;;;31.55;;
35150;SDS011;55720;51.972;4.624;2023-02-15T00:16:42;70.55;;;30.10;;
35150;SDS011;55720;51.972;4.624;2023-02-15T00:19:19;87.07;;;31.77;;
35150;SDS011;55720;51.972;4.624;2023-02-15T00:21:46;87.80;;;32.47;;
35150;SDS011;55720;51.972;4.624;2023-02-15T00:24:13;74.47;;;29.70;;
35150;SDS011;55720;51.972;4.624;2023-02-15T00:26:41;80.65;;;32.58;;
35150;SDS011;55720;51.972;4.624;2023-02-15T00:29:08;79.72;;;33.08;;
35150;SDS011;55720;51.972;4.624;2023-02-15T00:31:34;82.78;;;33.08;;
35150;SDS011;55720;51.972;4.624;2023-02-15T00:36:55;77.72;;;31.70;;
35150;SDS011;55720;51.972;4.624;2023-02-15T00:39:21;82.00;;;29.85;;
35150;SDS011;55720;51.972;4.624;2023-02-15T00:41:53;55.83;;;23.53;;
35150;SDS011;55720;51.972;4.624;2023-02-15T00:44:18;77.03;;;31.85;;
35150;SDS011;55720;51.972;4.624;2023-02-15T00:46:44;72.43;;;30.38;;
35150;SDS011;55720;51.972;4.624;2023-02-15T00:49:10;75.20;;;31.17;;
35150;SDS011;55720;51.972;4.624;2023-02-15T00:51:36;78.13;;;32.85;;
35150;SDS011;55720;51.972;4.624;2023-02-15T00:54:02;94.05;;;33.15;;
35150;SDS011;55720;51.972;4.624;2023-02-15T00:56:27;79.05;;;32.28;;
35150;SDS011;55720;51.972;4.624;2023-02-15T00:58:53;77.25;;;30.50;;
35150;SDS011;55720;51.972;4.624;2023-02-15T01:01:19;77.35;;;32.97;;
35150;SDS011;55720;51.972;4.624;2023-02-15T01:03:46;81.45;;;30.30;;
35150;SDS011;55720;51.972;4.624;2023-02-15T01:06:13;84.07;;;32.03;;
35150;SDS011;55720;51.972;4.624;2023-02-15T01:08:40;83.85;;;32.78;;
35150;SDS011;55720;51.972;4.624;2023-02-15T01:11:10;58.33;;;22.97;;
35150;SDS011;55720;51.972;4.624;2023-02-15T01:13:37;77.30;;;31.98;;
35150;SDS011;55720;51.972;4.624;2023-02-15T01:16:04;80.40;;;34.03;;
35150;SDS011;55720;51.972;4.624;2023-02-15T01:18:35;75.93;;;30.52;;
35150;SDS011;55720;51.972;4.624;2023-02-15T01:21:08;76.53;;;32.10;;
35150;SDS011;55720;51.972;4.624;2023-02-15T01:23:41;74.15;;;31.15;;
35150;SDS011;55720;51.972;4.624;2023-02-15T01:26:08;74.68;;;31.33;;
35150;SDS011;55720;51.972;4.624;2023-02-15T01:28:34;59.80;;;30.52;;
35150;SDS011;55720;51.972;4.624;2023-02-15T01:31:04;66.05;;;30.67;;
35150;SDS011;55720;51.972;4.624;2023-02-15T01:33:38;69.00;;;29.05;;
35150;SDS011;55720;51.972;4.624;2023-02-15T01:36:04;68.15;;;29.67;;
35150;SDS011;55720;51.972;4.624;2023-02-15T01:38:30;72.65;;;31.67;;
35150;SDS011;55720;51.972;4.624;2023-02-15T01:40:56;67.03;;;30.25;;
35150;SDS011;55720;51.972;4.624;2023-02-15T01:43:45;65.97;;;29.55;;
35150;SDS011;55720;51.972;4.624;2023-02-15T01:46:17;71.00;;;28.50;;
35150;SDS011;55720;51.972;4.624;2023-02-15T01:48:45;79.35;;;30.10;;
35150;SDS011;55720;51.972;4.624;2023-02-15T01:51:19;75.80;;;28.95;;
35150;SDS011;55720;51.972;4.624;2023-02-15T01:53:51;85.05;;;30.95;;
35150;SDS011;55720;51.972;4.624;2023-02-15T01:56:25;76.30;;;29.80;;
35150;SDS011;55720;51.972;4.624;2023-02-15T01:58:55;70.10;;;29.88;;
35150;SDS011;55720;51.972;4.624;2023-02-15T02:01:27;63.25;;;28.75;;
35150;SDS011;55720;51.972;4.624;2023-02-15T03:20:57;64.53;;;26.95;;
35150;SDS011;55720;51.972;4.624;2023-02-15T03:23:26;64.93;;;26.77;;
35150;SDS011;55720;51.972;4.624;2023-02-15T03:26:01;58.63;;;26.05;;
35150;SDS011;55720;51.972;4.624;2023-02-15T03:28:40;65.20;;;27.00;;
35150;SDS011;55720;51.972;4.624;2023-02-15T03:31:09;65.97;;;26.90;;
35150;SDS011;55720;51.972;4.624;2023-02-15T03:33:44;66.47;;;26.93;;
35150;SDS011;55720;51.972;4.624;2023-02-15T03:36:22;63.85;;;27.40;;
35150;SDS011;55720;51.972;4.624;2023-02-15T03:41:32;68.65;;;27.48;;
35150;SDS011;55720;51.972;4.624;2023-02-15T03:44:05;65.63;;;28.02;;
35150;SDS011;55720;51.972;4.624;2023-02-15T03:46:49;65.25;;;28.35;;
35150;SDS011;55720;51.972;4.624;2023-02-15T03:49:22;77.20;;;28.27;;
35150;SDS011;55720;51.972;4.624;2023-02-15T03:51:54;66.43;;;27.73;;
35150;SDS011;55720;51.972;4.624;2023-02-15T03:54:26;68.97;;;27.50;;
35150;SDS011;55720;51.972;4.624;2023-02-15T03:57:13;74.53;;;28.67;;
35150;SDS011;55720;51.972;4.624;2023-02-15T03:59:59;65.72;;;27.48;;
35150;SDS011;55720;51.972;4.624;2023-02-15T04:02:52;74.93;;;28.73;;
35150;SDS011;55720;51.972;4.624;2023-02-15T04:05:26;73.93;;;29.83;;
35150;SDS011;55720;51.972;4.624;2023-02-15T04:07:51;87.78;;;31.60;;
35150;SDS011;55720;51.972;4.624;2023-02-15T04:10:17;99.00;;;32.67;;
35150;SDS011;55720;51.972;4.624;2023-02-15T04:13:01;86.55;;;33.42;;
35150;SDS011;55720;51.972;4.624;2023-02-15T04:15:26;104.15;;;36.25;;
35150;SDS011;55720;51.972;4.624;2023-02-15T04:18:10;101.93;;;37.03;;
35150;SDS011;55720;51.972;4.624;2023-02-15T04:20:35;101.75;;;37.10;;
35150;SDS011;55720;51.972;4.624;2023-02-15T04:23:21;114.90;;;36.67;;
35150;SDS011;55720;51.972;4.624;2023-02-15T04:26:04;102.97;;;36.58;;
35150;SDS011;55720;51.972;4.624;2023-02-15T04:28:30;111.97;;;38.28;;
35150;SDS011;55720;51.972;4.624;2023-02-15T04:30:56;96.45;;;35.60;;
35150;SDS011;55720;51.972;4.624;2023-02-15T04:33:21;109.30;;;39.45;;
35150;SDS011;55720;51.972;4.624;2023-02-15T04:35:46;109.93;;;39.47;;
35150;SDS011;55720;51.972;4.624;2023-02-15T04:38:12;110.78;;;39.70;;
35150;SDS011;55720;51.972;4.624;2023-02-15T04:40:37;119.20;;;40.45;;
35150;SDS011;55720;51.972;4.624;2023-02-15T04:43:03;108.50;;;40.50;;
35150;SDS011;55720;51.972;4.624;2023-02-15T04:45:28;118.68;;;41.33;;
35150;SDS011;55720;51.972;4.624;2023-02-15T04:47:53;119.45;;;39.95;;
35150;SDS011;55720;51.972;4.624;2023-02-15T04:50:19;125.18;;;41.45;;
35150;SDS011;55720;51.972;4.624;2023-02-15T04:52:44;115.20;;;40.25;;
35150;SDS011;55720;51.972;4.624;2023-02-15T04:55:10;118.35;;;40.42;;
35150;SDS011;55720;51.972;4.624;2023-02-15T04:57:35;117.47;;;38.63;;
35150;SDS011;55720;51.972;4.624;2023-02-15T05:00:03;111.28;;;39.53;;
35150;SDS011;55720;51.972;4.624;2023-02-15T05:02:29;114.50;;;39.30;;
35150;SDS011;55720;51.972;4.624;2023-02-15T05:04:54;116.60;;;39.15;;
35150;SDS011;55720;51.972;4.624;2023-02-15T05:07:19;107.45;;;36.95;;
35150;SDS011;55720;51.972;4.624;2023-02-15T05:09:48;118.60;;;37.58;;
35150;SDS011;55720;51.972;4.624;2023-02-15T05:12:13;112.10;;;37.00;;
35150;SDS011;55720;51.972;4.624;2023-02-15T05:14:38;100.72;;;36.88;;
35150;SDS011;55720;51.972;4.624;2023-02-15T05:17:04;111.93;;;38.35;;
35150;SDS011;55720;51.972;4.624;2023-02-15T05:19:30;108.88;;;36.38;;
35150;SDS011;55720;51.972;4.624;2023-02-15T05:21:55;110.28;;;37.30;;
35150;SDS011;55720;51.972;4.624;2023-02-15T05:24:21;117.13;;;40.53;;
35150;SDS011;55720;51.972;4.624;2023-02-15T05:27:05;121.43;;;40.67;;
35150;SDS011;55720;51.972;4.624;2023-02-15T05:29:49;120.50;;;39.25;;
35150;SDS011;55720;51.972;4.624;2023-02-15T05:32:15;126.68;;;41.83;;
35150;SDS011;55720;51.972;4.624;2023-02-15T05:34:40;131.00;;;42.63;;
35150;SDS011;55720;51.972;4.624;2023-02-15T05:37:05;128.55;;;43.15;;
35150;SDS011;55720;51.972;4.624;2023-02-15T05:39:32;128.20;;;44.22;;
35150;SDS011;55720;51.972;4.624;2023-02-15T05:41:58;140.07;;;43.90;;
35150;SDS011;55720;51.972;4.624;2023-02-15T05:44:24;134.88;;;44.88;;
35150;SDS011;55720;51.972;4.624;2023-02-15T05:46:50;126.82;;;44.38;;
35150;SDS011;55720;51.972;4.624;2023-02-15T05:49:15;139.43;;;46.63;;
35150;SDS011;55720;51.972;4.624;2023-02-15T05:51:41;148.45;;;48.50;;
35150;SDS011;55720;51.972;4.624;2023-02-15T05:54:06;144.50;;;46.28;;
35150;SDS011;55720;51.972;4.624;2023-02-15T05:56:32;136.35;;;45.78;;
35150;SDS011;55720;51.972;4.624;2023-02-15T05:58:57;133.30;;;46.40;;
35150;SDS011;55720;51.972;4.624;2023-02-15T06:01:22;129.00;;;43.40;;
35150;SDS011;55720;51.972;4.624;2023-02-15T06:03:48;128.00;;;43.75;;
35150;SDS011;55720;51.972;4.624;2023-02-15T06:06:14;114.68;;;40.78;;
35150;SDS011;55720;51.972;4.624;2023-02-15T06:08:40;117.32;;;41.25;;
35150;SDS011;55720;51.972;4.624;2023-02-15T06:11:05;109.63;;;40.50;;
35150;SDS011;55720;51.972;4.624;2023-02-15T06:13:31;119.30;;;41.03;;
35150;SDS011;55720;51.972;4.624;2023-02-15T06:15:57;108.97;;;38.95;;
35150;SDS011;55720;51.972;4.624;2023-02-15T06:18:23;149.13;;;40.88;;
35150;SDS011;55720;51.972;4.624;2023-02-15T06:20:48;128.60;;;39.33;;
35150;SDS011;55720;51.972;4.624;2023-02-15T06:23:14;151.48;;;44.67;;
35150;SDS011;55720;51.972;4.624;2023-02-15T06:25:40;140.70;;;41.97;;
35150;SDS011;55720;51.972;4.624;2023-02-15T06:28:05;142.88;;;41.08;;
35150;SDS011;55720;51.972;4.624;2023-02-15T06:30:31;137.05;;;41.85;;
35150;SDS011;55720;51.972;4.624;2023-02-15T06:32:56;150.05;;;42.25;;
35150;SDS011;55720;51.972;4.624;2023-02-15T06:35:22;121.05;;;40.80;;
35150;SDS011;55720;51.972;4.624;2023-02-15T06:37:48;143.95;;;40.70;;
35150;SDS011;55720;51.972;4.624;2023-02-15T06:40:14;141.35;;;41.70;;
35150;SDS011;55720;51.972;4.624;2023-02-15T06:42:40;143.75;;;42.13;;
35150;SDS011;55720;51.972;4.624;2023-02-15T06:45:06;129.45;;;42.67;;
35150;SDS011;55720;51.972;4.624;2023-02-15T06:47:32;146.43;;;43.55;;
35150;SDS011;55720;51.972;4.624;2023-02-15T06:49:58;152.68;;;41.33;;
35150;SDS011;55720;51.972;4.624;2023-02-15T06:52:23;131.27;;;42.03;;
35150;SDS011;55720;51.972;4.624;2023-02-15T06:54:49;177.20;;;44.85;;
35150;SDS011;55720;51.972;4.624;2023-02-15T06:57:14;142.38;;;41.70;;
35150;SDS011;55720;51.972;4.624;2023-02-15T06:59:39;129.02;;;43.53;;
35150;SDS011;55720;51.972;4.624;2023-02-15T07:02:05;130.82;;;43.10;;
35150;SDS011;55720;51.972;4.624;2023-02-15T07:04:30;134.00;;;43.22;;
35150;SDS011;55720;51.972;4.624;2023-02-15T07:06:55;125.65;;;44.25;;
35150;SDS011;55720;51.972;4.624;2023-02-15T07:09:21;136.45;;;44.53;;
35150;SDS011;55720;51.972;4.624;2023-02-15T07:11:49;132.50;;;42.90;;
35150;SDS011;55720;51.972;4.624;2023-02-15T07:14:33;143.98;;;45.80;;
35150;SDS011;55720;51.972;4.624;2023-02-15T07:16:58;135.48;;;42.17;;
35150;SDS011;55720;51.972;4.624;2023-02-15T07:19:23;128.02;;;42.80;;
35150;SDS011;55720;51.972;4.624;2023-02-15T07:21:49;136.13;;;44.00;;
35150;SDS011;55720;51.972;4.624;2023-02-15T07:24:14;129.63;;;43.83;;
35150;SDS011;55720;51.972;4.624;2023-02-15T07:26:40;130.57;;;44.83;;
35150;SDS011;55720;51.972;4.624;2023-02-15T07:29:05;131.43;;;44.83;;
35150;SDS011;55720;51.972;4.624;2023-02-15T07:31:30;142.57;;;45.97;;
35150;SDS011;55720;51.972;4.624;2023-02-15T07:33:56;136.25;;;46.00;;
35150;SDS011;55720;51.972;4.624;2023-02-15T07:36:22;148.25;;;47.15;;
35150;SDS011;55720;51.972;4.624;2023-02-15T07:38:47;136.88;;;48.08;;
35150;SDS011;55720;51.972;4.624;2023-02-15T07:41:13;145.30;;;48.42;;
35150;SDS011;55720;51.972;4.624;2023-02-15T07:43:41;152.02;;;49.25;;
35150;SDS011;55720;51.972;4.624;2023-02-15T07:46:09;134.95;;;47.58;;
35150;SDS011;55720;51.972;4.624;2023-02-15T07:48:36;144.50;;;49.28;;
35150;SDS011;55720;51.972;4.624;2023-02-15T07:51:04;141.95;;;48.83;;
35150;SDS011;55720;51.972;4.624;2023-02-15T07:53:31;155.10;;;48.58;;
35150;SDS011;55720;51.972;4.624;2023-02-15T07:56:00;152.02;;;49.03;;
35150;SDS011;55720;51.972;4.624;2023-02-15T07:58:27;160.60;;;50.42;;
35150;SDS011;55720;51.972;4.624;2023-02-15T08:01:11;157.05;;;52.05;;
35150;SDS011;55720;51.972;4.624;2023-02-15T08:03:37;178.55;;;55.60;;
35150;SDS011;55720;51.972;4.624;2023-02-15T08:06:03;173.43;;;55.63;;
35150;SDS011;55720;51.972;4.624;2023-02-15T08:08:28;164.25;;;55.40;;
35150;SDS011;55720;51.972;4.624;2023-02-15T08:11:13;167.32;;;57.00;;
35150;SDS011;55720;51.972;4.624;2023-02-15T08:14:11;174.43;;;59.42;;
35150;SDS011;55720;51.972;4.624;2023-02-15T08:16:42;177.67;;;60.10;;
35150;SDS011;55720;51.972;4.624;2023-02-15T08:21:55;167.52;;;56.40;;
35150;SDS011;55720;51.972;4.624;2023-02-15T08:24:23;175.30;;;56.90;;
35150;SDS011;55720;51.972;4.624;2023-02-15T08:26:50;160.95;;;55.28;;
35150;SDS011;55720;51.972;4.624;2023-02-15T08:29:16;169.35;;;57.53;;
35150;SDS011;55720;51.972;4.624;2023-02-15T08:31:52;167.15;;;55.47;;
35150;SDS011;55720;51.972;4.624;2023-02-15T08:34:19;168.45;;;56.95;;
35150;SDS011;55720;51.972;4.624;2023-02-15T08:36:45;173.45;;;58.40;;
35150;SDS011;55720;51.972;4.624;2023-02-15T08:39:11;159.00;;;57.63;;
35150;SDS011;55720;51.972;4.624;2023-02-15T08:41:38;174.73;;;57.67;;
35150;SDS011;55720;51.972;4.624;2023-02-15T08:44:05;175.50;;;56.65;;
35150;SDS011;55720;51.972;4.624;2023-02-15T08:46:33;173.93;;;56.67;;
35150;SDS011;55720;51.972;4.624;2023-02-15T08:49:00;161.43;;;57.33;;
35150;SDS011;55720;51.972;4.624;2023-02-15T08:51:27;164.77;;;57.92;;
35150;SDS011;55720;51.972;4.624;2023-02-15T08:53:55;171.27;;;61.13;;
35150;SDS011;55720;51.972;4.624;2023-02-15T08:56:31;165.18;;;58.90;;
35150;SDS011;55720;51.972;4.624;2023-02-15T08:58:58;171.77;;;59.17;;
35150;SDS011;55720;51.972;4.624;2023-02-15T09:01:25;163.15;;;57.85;;
35150;SDS011;55720;51.972;4.624;2023-02-15T09:03:55;166.60;;;60.67;;
35150;SDS011;55720;51.972;4.624;2023-02-15T09:06:22;168.45;;;59.85;;
35150;SDS011;55720;51.972;4.624;2023-02-15T09:08:50;162.88;;;59.20;;
35150;SDS011;55720;51.972;4.624;2023-02-15T09:11:26;169.70;;;61.50;;
35150;SDS011;55720;51.972;4.624;2023-02-15T09:13:54;182.13;;;62.75;;
35150;SDS011;55720;51.972;4.624;2023-02-15T09:16:24;176.95;;;62.88;;
35150;SDS011;55720;51.972;4.624;2023-02-15T09:18:51;174.70;;;61.20;;
35150;SDS011;55720;51.972;4.624;2023-02-15T09:21:18;166.23;;;62.47;;
35150;SDS011;55720;51.972;4.624;2023-02-15T09:23:46;173.70;;;62.72;;
35150;SDS011;55720;51.972;4.624;2023-02-15T09:26:15;178.85;;;65.35;;
35150;SDS011;55720;51.972;4.624;2023-02-15T09:28:45;168.95;;;65.68;;
35150;SDS011;55720;51.972;4.624;2023-02-15T09:31:12;167.13;;;63.72;;
35150;SDS011;55720;51.972;4.624;2023-02-15T09:33:40;171.95;;;65.28;;
35150;SDS011;55720;51.972;4.624;2023-02-15T09:36:17;161.60;;;65.40;;
35150;SDS011;55720;51.972;4.624;2023-02-15T09:38:46;160.73;;;61.53;;
35150;SDS011;55720;51.972;4.624;2023-02-15T09:47:36;148.88;;;56.55;;
35150;SDS011;55720;51.972;4.624;2023-02-15T09:55:34;121.30;;;51.67;;
35150;SDS011;55720;51.972;4.624;2023-02-15T09:58:14;111.05;;;50.17;;
35150;SDS011;55720;51.972;4.624;2023-02-15T10:09:45;86.20;;;41.33;;
35150;SDS011;55720;51.972;4.624;2023-02-15T10:15:23;83.15;;;38.95;;
35150;SDS011;55720;51.972;4.624;2023-02-15T10:18:16;76.22;;;35.35;;
35150;SDS011;55720;51.972;4.624;2023-02-15T10:20:57;70.75;;;33.42;;
35150;SDS011;55720;51.972;4.624;2023-02-15T10:23:49;68.13;;;31.98;;
35150;SDS011;55720;51.972;4.624;2023-02-15T10:26:20;66.80;;;31.73;;
35150;SDS011;55720;51.972;4.624;2023-02-15T10:28:59;65.57;;;31.63;;
35150;SDS011;55720;51.972;4.624;2023-02-15T10:34:16;64.18;;;33.28;;
35150;SDS011;55720;51.972;4.624;2023-02-15T10:39:43;69.75;;;33.80;;
35150;SDS011;55720;51.972;4.624;2023-02-15T10:42:43;73.75;;;32.10;;
35150;SDS011;55720;51.972;4.624;2023-02-15T10:48:23;65.07;;;31.45;;
35150;SDS011;55720;51.972;4.624;2023-02-15T10:51:14;63.83;;;31.80;;
35150;SDS011;55720;51.972;4.624;2023-02-15T10:53:52;75.35;;;32.55;;
35150;SDS011;55720;51.972;4.624;2023-02-15T10:56:25;64.80;;;31.95;;
35150;SDS011;55720;51.972;4.624;2023-02-15T11:01:41;66.43;;;32.58;;
35150;SDS011;55720;51.972;4.624;2023-02-15T11:06:49;62.80;;;31.20;;
35150;SDS011;55720;51.972;4.624;2023-02-15T11:09:19;65.20;;;30.48;;
35150;SDS011;55720;51.972;4.624;2023-02-15T11:11:50;68.80;;;32.92;;
35150;SDS011;55720;51.972;4.624;2023-02-15T11:14:21;66.43;;;31.85;;
35150;SDS011;55720;51.972;4.624;2023-02-15T11:17:14;60.50;;;31.30;;
35150;SDS011;55720;51.972;4.624;2023-02-15T11:19:51;62.58;;;31.77;;
35150;SDS011;55720;51.972;4.624;2023-02-15T11:22:25;60.83;;;31.02;;
35150;SDS011;55720;51.972;4.624;2023-02-15T11:24:51;68.50;;;31.92;;
35150;SDS011;55720;51.972;4.624;2023-02-15T11:27:20;66.35;;;31.30;;
35150;SDS011;55720;51.972;4.624;2023-02-15T11:32:46;63.95;;;31.42;;
35150;SDS011;55720;51.972;4.624;2023-02-15T11:42:53;64.28;;;30.98;;
35150;SDS011;55720;51.972;4.624;2023-02-15T11:45:24;62.38;;;31.63;;
35150;SDS011;55720;51.972;4.624;2023-02-15T11:47:55;63.55;;;30.48;;
35150;SDS011;55720;51.972;4.624;2023-02-15T11:50:23;62.17;;;30.23;;
35150;SDS011;55720;51.972;4.624;2023-02-15T11:52:51;68.32;;;31.25;;
35150;SDS011;55720;51.972;4.624;2023-02-15T11:55:20;61.40;;;31.20;;
35150;SDS011;55720;51.972;4.624;2023-02-15T11:57:55;61.50;;;29.33;;
35150;SDS011;55720;51.972;4.624;2023-02-15T12:00:38;63.40;;;29.30;;
35150;SDS011;55720;51.972;4.624;2023-02-15T12:03:09;59.53;;;31.37;;
35150;SDS011;55720;51.972;4.624;2023-02-15T12:05:42;59.28;;;29.27;;
35150;SDS011;55720;51.972;4.624;2023-02-15T12:08:30;58.25;;;29.88;;
35150;SDS011;55720;51.972;4.624;2023-02-15T12:11:03;59.28;;;29.40;;
35150;SDS011;55720;51.972;4.624;2023-02-15T12:15:58;57.45;;;29.00;;
35150;SDS011;55720;51.972;4.624;2023-02-15T12:21:23;67.78;;;29.13;;
35150;SDS011;55720;51.972;4.624;2023-02-15T12:23:52;57.27;;;28.20;;
35150;SDS011;55720;51.972;4.624;2023-02-15T12:26:38;56.53;;;28.83;;
35150;SDS011;55720;51.972;4.624;2023-02-15T12:29:07;56.95;;;30.50;;
35150;SDS011;55720;51.972;4.624;2023-02-15T12:31:50;56.78;;;28.85;;
35150;SDS011;55720;51.972;4.624;2023-02-15T12:36:55;55.60;;;28.52;;
35150;SDS011;55720;51.972;4.624;2023-02-15T12:39:25;52.95;;;29.58;;
35150;SDS011;55720;51.972;4.624;2023-02-15T12:44:33;62.53;;;29.33;;
35150;SDS011;55720;51.972;4.624;2023-02-15T12:47:03;55.22;;;28.08;;
35150;SDS011;55720;51.972;4.624;2023-02-15T12:49:41;58.35;;;29.40;;
35150;SDS011;55720;51.972;4.624;2023-02-15T12:54:45;63.20;;;28.27;;
35150;SDS011;55720;51.972;4.624;2023-02-15T12:57:33;55.42;;;28.08;;
35150;SDS011;55720;51.972;4.624;2023-02-15T12:59:59;61.67;;;27.25;;
35150;SDS011;55720;51.972;4.624;2023-02-15T13:02:36;53.95;;;25.70;;
35150;SDS011;55720;51.972;4.624;2023-02-15T13:05:16;55.83;;;26.52;;
35150;SDS011;55720;51.972;4.624;2023-02-15T13:07:49;53.28;;;25.67;;
35150;SDS011;55720;51.972;4.624;2023-02-15T13:10:21;53.97;;;26.15;;
35150;SDS011;55720;51.972;4.624;2023-02-15T13:12:50;51.83;;;24.63;;
35150;SDS011;55720;51.972;4.624;2023-02-15T13:15:26;56.15;;;26.60;;
35150;SDS011;55720;51.972;4.624;2023-02-15T13:17:57;57.78;;;26.08;;
35150;SDS011;55720;51.972;4.624;2023-02-15T13:20:24;47.42;;;25.40;;
35150;SDS011;55720;51.972;4.624;2023-02-15T13:22:53;54.90;;;26.65;;
35150;SDS011;55720;51.972;4.624;2023-02-15T13:25:28;57.60;;;25.90;;
35150;SDS011;55720;51.972;4.624;2023-02-15T13:28:01;58.55;;;27.15;;
35150;SDS011;55720;51.972;4.624;2023-02-15T13:30:33;50.08;;;26.15;;
35150;SDS011;55720;51.972;4.624;2023-02-15T13:33:06;53.53;;;26.60;;
35150;SDS011;55720;51.972;4.624;2023-02-15T13:35:43;58.00;;;27.83;;
35150;SDS011;55720;51.972;4.624;2023-02-15T13:41:33;54.17;;;26.00;;
35150;SDS011;55720;51.972;4.624;2023-02-15T13:46:56;45.90;;;24.33;;
35150;SDS011;55720;51.972;4.624;2023-02-15T13:49:37;52.72;;;26.50;;
35150;SDS011;55720;51.972;4.624;2023-02-15T13:58:23;55.22;;;27.63;;
35150;SDS011;55720;51.972;4.624;2023-02-15T14:17:29;57.33;;;27.27;;
35150;SDS011;55720;51.972;4.624;2023-02-15T14:20:16;57.42;;;27.38;;
35150;SDS011;55720;51.972;4.624;2023-02-15T14:23:02;56.20;;;27.45;;
35150;SDS011;55720;51.972;4.624;2023-02-15T14:25:45;55.85;;;28.30;;
35150;SDS011;55720;51.972;4.624;2023-02-15T14:31:06;58.65;;;28.60;;
35150;SDS011;55720;51.972;4.624;2023-02-15T14:33:40;59.22;;;29.20;;
35150;SDS011;55720;51.972;4.624;2023-02-15T14:36:14;60.33;;;28.58;;
35150;SDS011;55720;51.972;4.624;2023-02-15T14:38:48;58.65;;;28.48;;
35150;SDS011;55720;51.972;4.624;2023-02-15T14:41:20;63.75;;;29.77;;
35150;SDS011;55720;51.972;4.624;2023-02-15T14:46:28;58.72;;;30.13;;
35150;SDS011;55720;51.972;4.624;2023-02-15T14:48:55;62.47;;;29.48;;
35150;SDS011;55720;51.972;4.624;2023-02-15T14:51:57;57.15;;;28.45;;
35150;SDS011;55720;51.972;4.624;2023-02-15T14:56:46;57.42;;;28.83;;
35150;SDS011;55720;51.972;4.624;2023-02-15T14:59:43;60.50;;;28.42;;
35150;SDS011;55720;51.972;4.624;2023-02-15T15:02:13;60.10;;;29.10;;
35150;SDS011;55720;51.972;4.624;2023-02-15T15:04:41;60.00;;;29.80;;
35150;SDS011;55720;51.972;4.624;2023-02-15T15:07:21;62.03;;;29.90;;
35150;SDS011;55720;51.972;4.624;2023-02-15T15:09:59;67.28;;;30.83;;
35150;SDS011;55720;51.972;4.624;2023-02-15T15:12:36;66.03;;;31.33;;
35150;SDS011;55720;51.972;4.624;2023-02-15T15:15:03;68.78;;;30.33;;
35150;SDS011;55720;51.972;4.624;2023-02-15T15:25:47;70.65;;;33.72;;
35150;SDS011;55720;51.972;4.624;2023-02-15T15:36:21;73.28;;;33.38;;
35150;SDS011;55720;51.972;4.624;2023-02-15T15:42:01;73.28;;;34.45;;
35150;SDS011;55720;51.972;4.624;2023-02-15T15:47:37;70.57;;;34.47;;
35150;SDS011;55720;51.972;4.624;2023-02-15T15:50:17;68.47;;;33.50;;
35150;SDS011;55720;51.972;4.624;2023-02-15T15:52:48;69.10;;;33.90;;
35150;SDS011;55720;51.972;4.624;2023-02-15T15:55:18;67.50;;;34.35;;
35150;SDS011;55720;51.972;4.624;2023-02-15T15:57:48;73.03;;;34.33;;
35150;SDS011;55720;51.972;4.624;2023-02-15T16:02:59;74.03;;;35.00;;
35150;SDS011;55720;51.972;4.624;2023-02-15T16:05:24;79.68;;;34.97;;
35150;SDS011;55720;51.972;4.624;2023-02-15T16:07:50;73.82;;;34.88;;
35150;SDS011;55720;51.972;4.624;2023-02-15T16:10:25;73.97;;;36.92;;
35150;SDS011;55720;51.972;4.624;2023-02-15T16:12:52;77.82;;;36.35;;
35150;SDS011;55720;51.972;4.624;2023-02-15T16:17:49;70.53;;;34.25;;
35150;SDS011;55720;51.972;4.624;2023-02-15T16:20:21;71.03;;;34.35;;
35150;SDS011;55720;51.972;4.624;2023-02-15T16:22:48;76.63;;;34.60;;
35150;SDS011;55720;51.972;4.624;2023-02-15T16:25:34;76.72;;;34.30;;
35150;SDS011;55720;51.972;4.624;2023-02-15T16:28:08;71.70;;;34.75;;
35150;SDS011;55720;51.972;4.624;2023-02-15T16:30:37;77.22;;;34.90;;
35150;SDS011;55720;51.972;4.624;2023-02-15T16:33:06;76.28;;;35.13;;
35150;SDS011;55720;51.972;4.624;2023-02-15T16:35:33;75.32;;;34.83;;
35150;SDS011;55720;51.972;4.624;2023-02-15T16:37:59;71.18;;;35.47;;
35150;SDS011;55720;51.972;4.624;2023-02-15T16:42:50;74.68;;;34.33;;
35150;SDS011;55720;51.972;4.624;2023-02-15T16:45:18;75.25;;;34.97;;
35150;SDS011;55720;51.972;4.624;2023-02-15T16:47:48;73.85;;;33.63;;
35150;SDS011;55720;51.972;4.624;2023-02-15T16:50:19;76.78;;;34.33;;
35150;SDS011;55720;51.972;4.624;2023-02-15T16:52:48;68.75;;;33.55;;
35150;SDS011;55720;51.972;4.624;2023-02-15T16:55:21;71.43;;;34.90;;
35150;SDS011;55720;51.972;4.624;2023-02-15T16:57:57;73.93;;;32.75;;
35150;SDS011;55720;51.972;4.624;2023-02-15T17:00:28;68.95;;;33.45;;
35150;SDS011;55720;51.972;4.624;2023-02-15T17:03:01;71.38;;;31.80;;
35150;SDS011;55720;51.972;4.624;2023-02-15T17:05:33;70.35;;;32.97;;
35150;SDS011;55720;51.972;4.624;2023-02-15T17:08:24;73.68;;;33.25;;
35150;SDS011;55720;51.972;4.624;2023-02-15T17:13:39;69.75;;;31.80;;
35150;SDS011;55720;51.972;4.624;2023-02-15T17:16:29;75.88;;;32.13;;
35150;SDS011;55720;51.972;4.624;2023-02-15T17:18:58;66.30;;;31.65;;
35150;SDS011;55720;51.972;4.624;2023-02-15T17:21:27;73.18;;;32.17;;
35150;SDS011;55720;51.972;4.624;2023-02-15T17:23:58;68.57;;;31.55;;
35150;SDS011;55720;51.972;4.624;2023-02-15T17:26:35;73.50;;;31.90;;
35150;SDS011;55720;51.972;4.624;2023-02-15T17:29:17;70.93;;;32.95;;
35150;SDS011;55720;51.972;4.624;2023-02-15T17:31:49;73.40;;;32.58;;
35150;SDS011;55720;51.972;4.624;2023-02-15T17:37:11;70.22;;;33.80;;
35150;SDS011;55720;51.972;4.624;2023-02-15T17:39:39;70.95;;;33.50;;
35150;SDS011;55720;51.972;4.624;2023-02-15T17:42:05;71.25;;;32.88;;
35150;SDS011;55720;51.972;4.624;2023-02-15T17:44:31;70.40;;;32.38;;
35150;SDS011;55720;51.972;4.624;2023-02-15T17:46:56;73.32;;;32.90;;
35150;SDS011;55720;51.972;4.624;2023-02-15T17:49:23;69.90;;;32.25;;
35150;SDS011;55720;51.972;4.624;2023-02-15T17:51:53;69.43;;;33.28;;
35150;SDS011;55720;51.972;4.624;2023-02-15T17:54:18;71.63;;;32.80;;
35150;SDS011;55720;51.972;4.624;2023-02-15T17:57:04;73.35;;;32.95;;
35150;SDS011;55720;51.972;4.624;2023-02-15T17:59:36;68.93;;;32.10;;
35150;SDS011;55720;51.972;4.624;2023-02-15T18:02:20;72.32;;;32.78;;
35150;SDS011;55720;51.972;4.624;2023-02-15T18:05:04;66.65;;;31.25;;
35150;SDS011;55720;51.972;4.624;2023-02-15T18:07:48;71.38;;;31.88;;
35150;SDS011;55720;51.972;4.624;2023-02-15T18:10:32;69.18;;;31.23;;
35150;SDS011;55720;51.972;4.624;2023-02-15T18:13:16;72.10;;;32.55;;
35150;SDS011;55720;51.972;4.624;2023-02-15T18:15:42;72.78;;;31.55;;
35150;SDS011;55720;51.972;4.624;2023-02-15T18:18:08;74.97;;;31.58;;
35150;SDS011;55720;51.972;4.624;2023-02-15T18:20:39;62.40;;;30.98;;